sensor_id;sensor_type;location;lat;lon;timestamp;P1;durP1;ratioP1;P2;durP2;ratioP2
66143;SDS011;52947;50.842;6.084;2024-03-08T00:00:13;53.97;;;31.05;;
66143;SDS011;52947;50.842;6.084;2024-03-08T00:05:14;46.67;;;29.13;;
66143;SDS011;52947;50.842;6.084;2024-03-08T00:07:42;52.10;;;31.70;;
66143;SDS011;52947;50.842;6.084;2024-03-08T00:10:11;62.72;;;32.33;;
66143;SDS011;52947;50.842;6.084;2024-03-08T00:12:42;47.30;;;29.88;;
66143;SDS011;52947;50.842;6.084;2024-03-08T00:15:13;57.90;;;31.85;;
66143;SDS011;52947;50.842;6.084;2024-03-08T00:17:44;50.92;;;30.10;;
66143;SDS011;52947;50.842;6.084;2024-03-08T00:20:14;54.55;;;31.17;;
66143;SDS011;52947;50.842;6.084;2024-03-08T00:22:45;57.05;;;32.45;;
66143;SDS011;52947;50.842;6.084;2024-03-08T00:25:14;48.58;;;32.53;;
66143;SDS011;52947;50.842;6.084;2024-03-08T00:27:43;52.75;;;31.17;;
66143;SDS011;52947;50.842;6.084;2024-03-08T00:30:12;55.53;;;32.30;;
66143;SDS011;52947;50.842;6.084;2024-03-08T00:32:41;50.33;;;32.00;;
66143;SDS011;52947;50.842;6.084;2024-03-08T00:35:09;54.70;;;30.52;;
66143;SDS011;52947;50.842;6.084;2024-03-08T00:37:39;50.38;;;31.17;;
66143;SDS011;52947;50.842;6.084;2024-03-08T00:40:08;52.60;;;33.38;;
66143;SDS011;52947;50.842;6.084;2024-03-08T00:42:37;46.70;;;28.63;;
66143;SDS011;52947;50.842;6.084;2024-03-08T00:45:06;44.35;;;27.23;;
66143;SDS011;52947;50.842;6.084;2024-03-08T00:47:38;47.42;;;29.08;;
66143;SDS011;52947;50.842;6.084;2024-03-08T00:50:09;46.70;;;29.85;;
66143;SDS011;52947;50.842;6.084;2024-03-08T00:52:37;51.50;;;32.17;;
66143;SDS011;52947;50.842;6.084;2024-03-08T00:55:05;50.20;;;31.20;;
66143;SDS011;52947;50.842;6.084;2024-03-08T00:57:34;48.65;;;30.75;;
66143;SDS011;52947;50.842;6.084;2024-03-08T01:00:03;44.08;;;28.42;;
66143;SDS011;52947;50.842;6.084;2024-03-08T01:02:36;49.38;;;30.42;;
66143;SDS011;52947;50.842;6.084;2024-03-08T01:05:05;56.28;;;32.50;;
66143;SDS011;52947;50.842;6.084;2024-03-08T01:07:34;47.20;;;29.90;;
66143;SDS011;52947;50.842;6.084;2024-03-08T01:10:02;55.90;;;32.97;;
66143;SDS011;52947;50.842;6.084;2024-03-08T01:12:31;51.90;;;32.45;;
66143;SDS011;52947;50.842;6.084;2024-03-08T01:14:59;56.05;;;36.20;;
66143;SDS011;52947;50.842;6.084;2024-03-08T01:17:27;60.28;;;34.75;;
66143;SDS011;52947;50.842;6.084;2024-03-08T01:19:55;59.08;;;33.78;;
66143;SDS011;52947;50.842;6.084;2024-03-08T01:22:24;53.03;;;31.55;;
66143;SDS011;52947;50.842;6.084;2024-03-08T01:24:54;54.17;;;33.63;;
66143;SDS011;52947;50.842;6.084;2024-03-08T01:27:22;54.03;;;31.00;;
66143;SDS011;52947;50.842;6.084;2024-03-08T01:29:51;62.63;;;34.42;;
66143;SDS011;52947;50.842;6.084;2024-03-08T01:32:19;52.50;;;31.80;;
66143;SDS011;52947;50.842;6.084;2024-03-08T01:34:49;55.72;;;30.20;;
66143;SDS011;52947;50.842;6.084;2024-03-08T01:37:17;54.50;;;32.10;;
66143;SDS011;52947;50.842;6.084;2024-03-08T01:39:46;57.20;;;32.95;;
66143;SDS011;52947;50.842;6.084;2024-03-08T01:42:14;58.38;;;32.42;;
66143;SDS011;52947;50.842;6.084;2024-03-08T01:44:44;60.38;;;33.42;;
66143;SDS011;52947;50.842;6.084;2024-03-08T01:47:12;53.33;;;32.22;;
66143;SDS011;52947;50.842;6.084;2024-03-08T01:49:40;53.25;;;33.30;;
66143;SDS011;52947;50.842;6.084;2024-03-08T01:52:08;62.22;;;35.17;;
66143;SDS011;52947;50.842;6.084;2024-03-08T01:54:37;60.22;;;34.90;;
66143;SDS011;52947;50.842;6.084;2024-03-08T01:57:08;54.25;;;31.95;;
66143;SDS011;52947;50.842;6.084;2024-03-08T01:59:36;60.83;;;34.25;;
66143;SDS011;52947;50.842;6.084;2024-03-08T02:02:05;55.92;;;32.25;;
66143;SDS011;52947;50.842;6.084;2024-03-08T02:04:35;50.63;;;32.65;;
66143;SDS011;52947;50.842;6.084;2024-03-08T02:07:05;59.97;;;32.13;;
66143;SDS011;52947;50.842;6.084;2024-03-08T02:09:36;52.80;;;32.70;;
66143;SDS011;52947;50.842;6.084;2024-03-08T02:12:06;60.28;;;34.85;;
66143;SDS011;52947;50.842;6.084;2024-03-08T02:14:39;57.47;;;32.10;;
66143;SDS011;52947;50.842;6.084;2024-03-08T02:17:07;63.92;;;32.85;;
66143;SDS011;52947;50.842;6.084;2024-03-08T02:19:35;55.38;;;31.38;;
66143;SDS011;52947;50.842;6.084;2024-03-08T02:22:05;53.92;;;30.67;;
66143;SDS011;52947;50.842;6.084;2024-03-08T02:24:33;60.65;;;34.10;;
66143;SDS011;52947;50.842;6.084;2024-03-08T02:27:02;62.92;;;32.72;;
66143;SDS011;52947;50.842;6.084;2024-03-08T02:29:30;56.95;;;32.35;;
66143;SDS011;52947;50.842;6.084;2024-03-08T02:32:00;62.45;;;33.75;;
66143;SDS011;52947;50.842;6.084;2024-03-08T02:34:29;57.90;;;33.42;;
66143;SDS011;52947;50.842;6.084;2024-03-08T02:36:58;57.70;;;33.38;;
66143;SDS011;52947;50.842;6.084;2024-03-08T02:39:28;57.63;;;34.90;;
66143;SDS011;52947;50.842;6.084;2024-03-08T02:41:56;58.30;;;35.15;;
66143;SDS011;52947;50.842;6.084;2024-03-08T02:44:24;62.03;;;35.25;;
66143;SDS011;52947;50.842;6.084;2024-03-08T02:46:52;59.42;;;32.47;;
66143;SDS011;52947;50.842;6.084;2024-03-08T02:49:21;58.67;;;34.05;;
66143;SDS011;52947;50.842;6.084;2024-03-08T02:51:49;56.90;;;34.33;;
66143;SDS011;52947;50.842;6.084;2024-03-08T02:54:17;62.55;;;35.28;;
66143;SDS011;52947;50.842;6.084;2024-03-08T02:56:47;66.70;;;36.20;;
66143;SDS011;52947;50.842;6.084;2024-03-08T02:59:17;62.10;;;34.67;;
66143;SDS011;52947;50.842;6.084;2024-03-08T03:01:45;64.03;;;34.53;;
66143;SDS011;52947;50.842;6.084;2024-03-08T03:04:13;68.78;;;34.92;;
66143;SDS011;52947;50.842;6.084;2024-03-08T03:06:41;62.55;;;35.75;;
66143;SDS011;52947;50.842;6.084;2024-03-08T03:09:09;59.08;;;33.10;;
66143;SDS011;52947;50.842;6.084;2024-03-08T03:11:38;61.47;;;33.53;;
66143;SDS011;52947;50.842;6.084;2024-03-08T03:14:07;64.50;;;35.33;;
66143;SDS011;52947;50.842;6.084;2024-03-08T03:16:35;60.80;;;34.15;;
66143;SDS011;52947;50.842;6.084;2024-03-08T03:19:04;62.28;;;37.65;;
66143;SDS011;52947;50.842;6.084;2024-03-08T03:21:32;58.63;;;34.47;;
66143;SDS011;52947;50.842;6.084;2024-03-08T03:24:02;65.28;;;34.28;;
66143;SDS011;52947;50.842;6.084;2024-03-08T03:26:37;64.30;;;34.85;;
66143;SDS011;52947;50.842;6.084;2024-03-08T03:29:08;60.00;;;34.53;;
66143;SDS011;52947;50.842;6.084;2024-03-08T03:31:37;62.00;;;31.42;;
66143;SDS011;52947;50.842;6.084;2024-03-08T03:34:06;58.92;;;33.55;;
66143;SDS011;52947;50.842;6.084;2024-03-08T03:36:35;62.78;;;35.97;;
66143;SDS011;52947;50.842;6.084;2024-03-08T03:39:04;53.67;;;31.27;;
66143;SDS011;52947;50.842;6.084;2024-03-08T03:41:37;58.28;;;33.33;;
66143;SDS011;52947;50.842;6.084;2024-03-08T03:44:05;63.72;;;34.53;;
66143;SDS011;52947;50.842;6.084;2024-03-08T03:46:35;59.42;;;32.70;;
66143;SDS011;52947;50.842;6.084;2024-03-08T03:49:03;59.70;;;34.53;;
66143;SDS011;52947;50.842;6.084;2024-03-08T03:51:31;65.18;;;35.45;;
66143;SDS011;52947;50.842;6.084;2024-03-08T03:53:59;53.97;;;31.52;;
66143;SDS011;52947;50.842;6.084;2024-03-08T03:56:30;63.45;;;33.60;;
66143;SDS011;52947;50.842;6.084;2024-03-08T03:58:58;60.88;;;33.83;;
66143;SDS011;52947;50.842;6.084;2024-03-08T04:01:26;65.07;;;34.05;;
66143;SDS011;52947;50.842;6.084;2024-03-08T04:03:55;63.80;;;33.42;;
66143;SDS011;52947;50.842;6.084;2024-03-08T04:06:25;65.03;;;34.22;;
66143;SDS011;52947;50.842;6.084;2024-03-08T04:08:53;64.13;;;35.05;;
66143;SDS011;52947;50.842;6.084;2024-03-08T04:11:21;60.33;;;34.15;;
66143;SDS011;52947;50.842;6.084;2024-03-08T04:13:49;68.15;;;36.63;;
66143;SDS011;52947;50.842;6.084;2024-03-08T04:16:19;71.28;;;37.63;;
66143;SDS011;52947;50.842;6.084;2024-03-08T04:18:47;70.25;;;37.55;;
66143;SDS011;52947;50.842;6.084;2024-03-08T04:21:17;68.90;;;32.63;;
66143;SDS011;52947;50.842;6.084;2024-03-08T04:23:45;64.68;;;35.38;;
66143;SDS011;52947;50.842;6.084;2024-03-08T04:26:13;78.13;;;37.83;;
66143;SDS011;52947;50.842;6.084;2024-03-08T04:28:45;91.35;;;42.00;;
66143;SDS011;52947;50.842;6.084;2024-03-08T04:31:13;81.45;;;38.55;;
66143;SDS011;52947;50.842;6.084;2024-03-08T04:33:42;103.80;;;41.28;;
66143;SDS011;52947;50.842;6.084;2024-03-08T04:36:11;124.70;;;52.42;;
66143;SDS011;52947;50.842;6.084;2024-03-08T04:38:41;129.05;;;48.33;;
66143;SDS011;52947;50.842;6.084;2024-03-08T04:41:09;126.03;;;46.17;;
66143;SDS011;52947;50.842;6.084;2024-03-08T04:43:38;131.75;;;49.53;;
66143;SDS011;52947;50.842;6.084;2024-03-08T04:46:06;127.18;;;46.88;;
66143;SDS011;52947;50.842;6.084;2024-03-08T04:48:34;131.07;;;46.15;;
66143;SDS011;52947;50.842;6.084;2024-03-08T04:51:03;141.20;;;48.13;;
66143;SDS011;52947;50.842;6.084;2024-03-08T04:53:32;125.43;;;49.60;;
66143;SDS011;52947;50.842;6.084;2024-03-08T04:56:02;151.40;;;56.72;;
66143;SDS011;52947;50.842;6.084;2024-03-08T04:58:33;130.13;;;49.90;;
66143;SDS011;52947;50.842;6.084;2024-03-08T05:01:03;126.65;;;49.13;;
66143;SDS011;52947;50.842;6.084;2024-03-08T05:03:31;139.75;;;50.15;;
66143;SDS011;52947;50.842;6.084;2024-03-08T05:05:59;127.78;;;47.80;;
66143;SDS011;52947;50.842;6.084;2024-03-08T05:08:27;124.80;;;45.95;;
66143;SDS011;52947;50.842;6.084;2024-03-08T05:10:55;108.85;;;43.55;;
66143;SDS011;52947;50.842;6.084;2024-03-08T05:13:25;108.63;;;43.97;;
66143;SDS011;52947;50.842;6.084;2024-03-08T05:15:53;89.72;;;40.58;;
66143;SDS011;52947;50.842;6.084;2024-03-08T05:18:24;68.03;;;31.98;;
66143;SDS011;52947;50.842;6.084;2024-03-08T05:20:54;78.93;;;35.05;;
66143;SDS011;52947;50.842;6.084;2024-03-08T05:23:23;67.10;;;31.40;;
66143;SDS011;52947;50.842;6.084;2024-03-08T05:25:51;69.22;;;33.45;;
66143;SDS011;52947;50.842;6.084;2024-03-08T05:28:19;60.92;;;33.45;;
66143;SDS011;52947;50.842;6.084;2024-03-08T05:30:48;68.07;;;35.40;;
66143;SDS011;52947;50.842;6.084;2024-03-08T05:33:16;58.05;;;31.88;;
66143;SDS011;52947;50.842;6.084;2024-03-08T05:38:33;60.47;;;30.52;;
66143;SDS011;52947;50.842;6.084;2024-03-08T05:41:01;80.68;;;33.40;;
66143;SDS011;52947;50.842;6.084;2024-03-08T05:43:29;54.00;;;29.13;;
66143;SDS011;52947;50.842;6.084;2024-03-08T05:45:58;63.58;;;30.00;;
66143;SDS011;52947;50.842;6.084;2024-03-08T05:48:26;61.75;;;33.70;;
66143;SDS011;52947;50.842;6.084;2024-03-08T05:50:54;69.07;;;35.88;;
66143;SDS011;52947;50.842;6.084;2024-03-08T05:53:23;68.35;;;36.88;;
66143;SDS011;52947;50.842;6.084;2024-03-08T05:55:51;71.05;;;34.35;;
66143;SDS011;52947;50.842;6.084;2024-03-08T05:58:20;71.40;;;35.88;;
66143;SDS011;52947;50.842;6.084;2024-03-08T06:00:48;63.47;;;34.03;;
66143;SDS011;52947;50.842;6.084;2024-03-08T06:03:20;62.53;;;32.65;;
66143;SDS011;52947;50.842;6.084;2024-03-08T06:05:48;59.38;;;32.00;;
66143;SDS011;52947;50.842;6.084;2024-03-08T06:08:16;79.13;;;31.00;;
66143;SDS011;52947;50.842;6.084;2024-03-08T06:10:45;66.55;;;34.30;;
66143;SDS011;52947;50.842;6.084;2024-03-08T06:13:17;63.80;;;37.20;;
66143;SDS011;52947;50.842;6.084;2024-03-08T06:15:45;63.15;;;33.13;;
66143;SDS011;52947;50.842;6.084;2024-03-08T06:18:13;66.80;;;34.22;;
66143;SDS011;52947;50.842;6.084;2024-03-08T06:20:43;60.38;;;32.30;;
66143;SDS011;52947;50.842;6.084;2024-03-08T06:23:12;77.20;;;40.28;;
66143;SDS011;52947;50.842;6.084;2024-03-08T06:25:44;70.20;;;34.88;;
66143;SDS011;52947;50.842;6.084;2024-03-08T06:28:12;66.30;;;33.17;;
66143;SDS011;52947;50.842;6.084;2024-03-08T06:30:40;72.93;;;33.95;;
66143;SDS011;52947;50.842;6.084;2024-03-08T06:33:09;68.13;;;35.63;;
66143;SDS011;52947;50.842;6.084;2024-03-08T06:35:38;67.05;;;38.70;;
66143;SDS011;52947;50.842;6.084;2024-03-08T06:38:07;59.03;;;32.17;;
66143;SDS011;52947;50.842;6.084;2024-03-08T06:40:35;51.10;;;27.95;;
66143;SDS011;52947;50.842;6.084;2024-03-08T06:43:04;57.85;;;31.98;;
66143;SDS011;52947;50.842;6.084;2024-03-08T06:45:32;53.47;;;30.42;;
66143;SDS011;52947;50.842;6.084;2024-03-08T06:48:03;64.78;;;31.73;;
66143;SDS011;52947;50.842;6.084;2024-03-08T06:50:36;53.15;;;28.48;;
66143;SDS011;52947;50.842;6.084;2024-03-08T06:53:04;55.63;;;31.70;;
66143;SDS011;52947;50.842;6.084;2024-03-08T06:55:34;50.97;;;30.60;;
66143;SDS011;52947;50.842;6.084;2024-03-08T06:58:02;49.83;;;28.90;;
66143;SDS011;52947;50.842;6.084;2024-03-08T07:00:30;58.13;;;31.33;;
66143;SDS011;52947;50.842;6.084;2024-03-08T07:02:58;58.03;;;28.42;;
66143;SDS011;52947;50.842;6.084;2024-03-08T07:05:27;47.78;;;28.92;;
66143;SDS011;52947;50.842;6.084;2024-03-08T07:07:57;50.83;;;30.08;;
66143;SDS011;52947;50.842;6.084;2024-03-08T07:10:25;45.40;;;26.05;;
66143;SDS011;52947;50.842;6.084;2024-03-08T07:12:56;48.30;;;26.75;;
66143;SDS011;52947;50.842;6.084;2024-03-08T07:15:24;47.30;;;29.35;;
66143;SDS011;52947;50.842;6.084;2024-03-08T07:17:52;51.92;;;25.88;;
66143;SDS011;52947;50.842;6.084;2024-03-08T07:20:20;49.63;;;28.10;;
66143;SDS011;52947;50.842;6.084;2024-03-08T07:22:49;44.90;;;26.83;;
66143;SDS011;52947;50.842;6.084;2024-03-08T07:25:17;51.63;;;29.73;;
66143;SDS011;52947;50.842;6.084;2024-03-08T07:27:49;50.75;;;27.00;;
66143;SDS011;52947;50.842;6.084;2024-03-08T07:30:20;46.40;;;27.00;;
66143;SDS011;52947;50.842;6.084;2024-03-08T07:33:07;50.63;;;27.13;;
66143;SDS011;52947;50.842;6.084;2024-03-08T07:35:39;42.35;;;24.17;;
66143;SDS011;52947;50.842;6.084;2024-03-08T07:38:07;51.63;;;29.23;;
66143;SDS011;52947;50.842;6.084;2024-03-08T07:40:36;47.60;;;25.55;;
66143;SDS011;52947;50.842;6.084;2024-03-08T07:43:07;42.35;;;25.23;;
66143;SDS011;52947;50.842;6.084;2024-03-08T07:45:36;39.50;;;24.35;;
66143;SDS011;52947;50.842;6.084;2024-03-08T07:48:05;43.13;;;25.23;;
66143;SDS011;52947;50.842;6.084;2024-03-08T07:50:37;43.65;;;25.65;;
66143;SDS011;52947;50.842;6.084;2024-03-08T07:53:06;44.08;;;23.98;;
66143;SDS011;52947;50.842;6.084;2024-03-08T07:55:35;52.10;;;26.02;;
66143;SDS011;52947;50.842;6.084;2024-03-08T07:58:04;42.80;;;25.63;;
66143;SDS011;52947;50.842;6.084;2024-03-08T08:00:33;41.13;;;24.58;;
66143;SDS011;52947;50.842;6.084;2024-03-08T08:03:04;42.92;;;23.23;;
66143;SDS011;52947;50.842;6.084;2024-03-08T08:05:34;41.80;;;25.63;;
66143;SDS011;52947;50.842;6.084;2024-03-08T08:08:05;47.65;;;27.10;;
66143;SDS011;52947;50.842;6.084;2024-03-08T08:10:37;41.78;;;24.73;;
66143;SDS011;52947;50.842;6.084;2024-03-08T08:13:06;47.95;;;26.90;;
66143;SDS011;52947;50.842;6.084;2024-03-08T08:15:34;45.38;;;25.30;;
66143;SDS011;52947;50.842;6.084;2024-03-08T08:18:03;47.80;;;25.60;;
66143;SDS011;52947;50.842;6.084;2024-03-08T08:20:33;43.80;;;24.42;;
66143;SDS011;52947;50.842;6.084;2024-03-08T08:23:01;45.97;;;25.42;;
66143;SDS011;52947;50.842;6.084;2024-03-08T08:25:30;51.58;;;28.90;;
66143;SDS011;52947;50.842;6.084;2024-03-08T08:28:01;44.03;;;25.80;;
66143;SDS011;52947;50.842;6.084;2024-03-08T08:30:30;50.15;;;27.20;;
66143;SDS011;52947;50.842;6.084;2024-03-08T08:33:00;47.78;;;25.30;;
66143;SDS011;52947;50.842;6.084;2024-03-08T08:35:30;46.90;;;28.42;;
66143;SDS011;52947;50.842;6.084;2024-03-08T08:37:59;42.53;;;26.67;;
66143;SDS011;52947;50.842;6.084;2024-03-08T08:40:30;41.90;;;25.58;;
66143;SDS011;52947;50.842;6.084;2024-03-08T08:42:58;42.42;;;23.08;;
66143;SDS011;52947;50.842;6.084;2024-03-08T08:45:26;38.28;;;23.98;;
66143;SDS011;52947;50.842;6.084;2024-03-08T08:47:54;40.70;;;22.92;;
66143;SDS011;52947;50.842;6.084;2024-03-08T08:50:23;39.15;;;23.15;;
66143;SDS011;52947;50.842;6.084;2024-03-08T08:52:52;46.22;;;21.42;;
66143;SDS011;52947;50.842;6.084;2024-03-08T08:55:20;41.30;;;24.15;;
66143;SDS011;52947;50.842;6.084;2024-03-08T08:57:53;43.05;;;23.85;;
66143;SDS011;52947;50.842;6.084;2024-03-08T09:00:23;43.25;;;25.17;;
66143;SDS011;52947;50.842;6.084;2024-03-08T09:02:54;42.65;;;25.75;;
66143;SDS011;52947;50.842;6.084;2024-03-08T09:05:24;38.30;;;23.08;;
66143;SDS011;52947;50.842;6.084;2024-03-08T09:07:54;40.80;;;24.17;;
66143;SDS011;52947;50.842;6.084;2024-03-08T09:10:23;43.45;;;25.33;;
66143;SDS011;52947;50.842;6.084;2024-03-08T09:12:56;38.88;;;23.17;;
66143;SDS011;52947;50.842;6.084;2024-03-08T09:15:26;34.85;;;21.95;;
66143;SDS011;52947;50.842;6.084;2024-03-08T09:17:55;51.80;;;23.27;;
66143;SDS011;52947;50.842;6.084;2024-03-08T09:20:24;46.50;;;25.17;;
66143;SDS011;52947;50.842;6.084;2024-03-08T09:22:52;43.42;;;26.05;;
66143;SDS011;52947;50.842;6.084;2024-03-08T09:25:22;49.88;;;27.45;;
66143;SDS011;52947;50.842;6.084;2024-03-08T09:27:52;42.47;;;24.90;;
66143;SDS011;52947;50.842;6.084;2024-03-08T09:30:20;39.55;;;24.10;;
66143;SDS011;52947;50.842;6.084;2024-03-08T09:32:48;39.90;;;24.17;;
66143;SDS011;52947;50.842;6.084;2024-03-08T09:35:18;41.42;;;22.83;;
66143;SDS011;52947;50.842;6.084;2024-03-08T09:37:46;36.72;;;20.45;;
66143;SDS011;52947;50.842;6.084;2024-03-08T09:40:18;44.35;;;23.27;;
66143;SDS011;52947;50.842;6.084;2024-03-08T09:42:48;37.55;;;23.02;;
66143;SDS011;52947;50.842;6.084;2024-03-08T09:45:17;45.25;;;22.52;;
66143;SDS011;52947;50.842;6.084;2024-03-08T09:47:48;43.08;;;22.83;;
66143;SDS011;52947;50.842;6.084;2024-03-08T09:50:17;38.58;;;23.58;;
66143;SDS011;52947;50.842;6.084;2024-03-08T09:52:46;37.10;;;23.08;;
66143;SDS011;52947;50.842;6.084;2024-03-08T09:55:16;36.95;;;21.50;;
66143;SDS011;52947;50.842;6.084;2024-03-08T09:57:50;38.63;;;24.80;;
66143;SDS011;52947;50.842;6.084;2024-03-08T10:00:37;40.45;;;23.15;;
66143;SDS011;52947;50.842;6.084;2024-03-08T10:03:05;39.38;;;23.77;;
66143;SDS011;52947;50.842;6.084;2024-03-08T10:05:33;45.67;;;23.58;;
66143;SDS011;52947;50.842;6.084;2024-03-08T10:08:01;35.72;;;22.45;;
66143;SDS011;52947;50.842;6.084;2024-03-08T10:10:29;38.17;;;23.95;;
66143;SDS011;52947;50.842;6.084;2024-03-08T10:12:58;41.03;;;25.15;;
66143;SDS011;52947;50.842;6.084;2024-03-08T10:15:27;38.95;;;23.33;;
66143;SDS011;52947;50.842;6.084;2024-03-08T10:17:55;44.05;;;25.40;;
66143;SDS011;52947;50.842;6.084;2024-03-08T10:20:24;43.13;;;25.83;;
66143;SDS011;52947;50.842;6.084;2024-03-08T10:22:53;38.53;;;23.23;;
66143;SDS011;52947;50.842;6.084;2024-03-08T10:25:35;38.80;;;24.20;;
66143;SDS011;52947;50.842;6.084;2024-03-08T10:28:05;43.20;;;23.52;;
66143;SDS011;52947;50.842;6.084;2024-03-08T10:30:33;34.50;;;21.98;;
66143;SDS011;52947;50.842;6.084;2024-03-08T10:33:01;37.65;;;21.85;;
66143;SDS011;52947;50.842;6.084;2024-03-08T10:35:32;39.75;;;22.45;;
66143;SDS011;52947;50.842;6.084;2024-03-08T10:38:00;35.88;;;21.25;;
66143;SDS011;52947;50.842;6.084;2024-03-08T10:40:33;38.28;;;23.55;;
66143;SDS011;52947;50.842;6.084;2024-03-08T10:43:03;34.38;;;19.98;;
66143;SDS011;52947;50.842;6.084;2024-03-08T10:45:34;34.70;;;21.35;;
66143;SDS011;52947;50.842;6.084;2024-03-08T10:48:04;58.85;;;24.27;;
66143;SDS011;52947;50.842;6.084;2024-03-08T10:50:43;37.00;;;23.35;;
66143;SDS011;52947;50.842;6.084;2024-03-08T10:53:12;37.13;;;24.88;;
66143;SDS011;52947;50.842;6.084;2024-03-08T10:55:41;33.78;;;21.92;;
66143;SDS011;52947;50.842;6.084;2024-03-08T10:58:11;33.13;;;21.55;;
66143;SDS011;52947;50.842;6.084;2024-03-08T11:00:40;37.25;;;21.98;;
66143;SDS011;52947;50.842;6.084;2024-03-08T11:03:09;35.53;;;22.23;;
66143;SDS011;52947;50.842;6.084;2024-03-08T11:06:16;36.05;;;21.52;;
66143;SDS011;52947;50.842;6.084;2024-03-08T11:08:50;43.17;;;22.65;;
66143;SDS011;52947;50.842;6.084;2024-03-08T11:11:24;35.05;;;22.40;;
66143;SDS011;52947;50.842;6.084;2024-03-08T11:14:01;31.85;;;19.15;;
66143;SDS011;52947;50.842;6.084;2024-03-08T11:16:38;36.45;;;21.58;;
66143;SDS011;52947;50.842;6.084;2024-03-08T11:19:24;40.28;;;22.00;;
66143;SDS011;52947;50.842;6.084;2024-03-08T11:24:27;33.58;;;17.98;;
66143;SDS011;52947;50.842;6.084;2024-03-08T11:27:04;38.28;;;22.15;;
66143;SDS011;52947;50.842;6.084;2024-03-08T11:29:33;34.38;;;20.85;;
66143;SDS011;52947;50.842;6.084;2024-03-08T11:32:08;35.67;;;21.33;;
66143;SDS011;52947;50.842;6.084;2024-03-08T11:34:39;38.13;;;22.30;;
66143;SDS011;52947;50.842;6.084;2024-03-08T11:37:10;31.15;;;20.60;;
66143;SDS011;52947;50.842;6.084;2024-03-08T11:39:39;40.13;;;23.67;;
66143;SDS011;52947;50.842;6.084;2024-03-08T11:42:08;36.30;;;22.50;;
66143;SDS011;52947;50.842;6.084;2024-03-08T11:44:37;32.17;;;21.42;;
66143;SDS011;52947;50.842;6.084;2024-03-08T11:47:11;36.70;;;22.65;;
66143;SDS011;52947;50.842;6.084;2024-03-08T11:49:39;41.28;;;22.42;;
66143;SDS011;52947;50.842;6.084;2024-03-08T11:52:10;35.15;;;21.25;;
66143;SDS011;52947;50.842;6.084;2024-03-08T11:54:40;31.48;;;20.23;;
66143;SDS011;52947;50.842;6.084;2024-03-08T11:57:08;31.85;;;20.33;;
66143;SDS011;52947;50.842;6.084;2024-03-08T11:59:36;31.92;;;19.60;;
66143;SDS011;52947;50.842;6.084;2024-03-08T12:02:04;32.08;;;20.92;;
66143;SDS011;52947;50.842;6.084;2024-03-08T12:04:35;38.83;;;22.85;;
66143;SDS011;52947;50.842;6.084;2024-03-08T12:07:03;36.25;;;21.73;;
66143;SDS011;52947;50.842;6.084;2024-03-08T12:09:35;34.75;;;21.65;;
66143;SDS011;52947;50.842;6.084;2024-03-08T12:12:04;33.50;;;21.33;;
66143;SDS011;52947;50.842;6.084;2024-03-08T12:14:35;39.45;;;24.13;;
66143;SDS011;52947;50.842;6.084;2024-03-08T12:17:03;33.38;;;20.60;;
66143;SDS011;52947;50.842;6.084;2024-03-08T12:19:32;30.85;;;20.40;;
66143;SDS011;52947;50.842;6.084;2024-03-08T12:22:08;34.72;;;20.15;;
66143;SDS011;52947;50.842;6.084;2024-03-08T12:24:39;28.63;;;19.08;;
66143;SDS011;52947;50.842;6.084;2024-03-08T12:27:20;36.63;;;20.13;;
66143;SDS011;52947;50.842;6.084;2024-03-08T12:29:48;31.77;;;21.77;;
66143;SDS011;52947;50.842;6.084;2024-03-08T12:32:17;35.75;;;21.08;;
66143;SDS011;52947;50.842;6.084;2024-03-08T12:34:51;33.72;;;19.27;;
66143;SDS011;52947;50.842;6.084;2024-03-08T12:37:21;35.55;;;21.88;;
66143;SDS011;52947;50.842;6.084;2024-03-08T12:39:50;33.10;;;19.90;;
66143;SDS011;52947;50.842;6.084;2024-03-08T12:42:18;30.75;;;19.60;;
66143;SDS011;52947;50.842;6.084;2024-03-08T12:44:46;30.63;;;20.23;;
66143;SDS011;52947;50.842;6.084;2024-03-08T12:47:14;30.23;;;20.17;;
66143;SDS011;52947;50.842;6.084;2024-03-08T12:49:42;33.95;;;19.33;;
66143;SDS011;52947;50.842;6.084;2024-03-08T12:52:11;31.33;;;18.08;;
66143;SDS011;52947;50.842;6.084;2024-03-08T12:54:41;37.95;;;19.73;;
66143;SDS011;52947;50.842;6.084;2024-03-08T12:57:09;29.00;;;18.17;;
66143;SDS011;52947;50.842;6.084;2024-03-08T12:59:37;29.33;;;18.70;;
66143;SDS011;52947;50.842;6.084;2024-03-08T13:02:05;30.85;;;18.55;;
66143;SDS011;52947;50.842;6.084;2024-03-08T13:04:33;29.05;;;19.25;;
66143;SDS011;52947;50.842;6.084;2024-03-08T13:07:02;30.20;;;19.40;;
66143;SDS011;52947;50.842;6.084;2024-03-08T13:09:31;34.17;;;19.10;;
66143;SDS011;52947;50.842;6.084;2024-03-08T13:12:05;28.67;;;18.25;;
66143;SDS011;52947;50.842;6.084;2024-03-08T13:14:35;33.88;;;21.10;;
66143;SDS011;52947;50.842;6.084;2024-03-08T13:17:03;29.17;;;19.02;;
66143;SDS011;52947;50.842;6.084;2024-03-08T13:19:31;29.27;;;19.98;;
66143;SDS011;52947;50.842;6.084;2024-03-08T13:22:00;29.58;;;18.73;;
66143;SDS011;52947;50.842;6.084;2024-03-08T13:24:30;30.75;;;18.52;;
66143;SDS011;52947;50.842;6.084;2024-03-08T13:27:00;30.60;;;18.98;;
66143;SDS011;52947;50.842;6.084;2024-03-08T13:29:29;28.63;;;19.90;;
66143;SDS011;52947;50.842;6.084;2024-03-08T13:32:00;33.47;;;18.92;;
66143;SDS011;52947;50.842;6.084;2024-03-08T13:34:29;31.10;;;18.48;;
66143;SDS011;52947;50.842;6.084;2024-03-08T13:37:01;31.63;;;18.67;;
66143;SDS011;52947;50.842;6.084;2024-03-08T13:39:32;34.35;;;19.13;;
66143;SDS011;52947;50.842;6.084;2024-03-08T13:42:07;28.13;;;17.70;;
66143;SDS011;52947;50.842;6.084;2024-03-08T13:44:37;30.05;;;16.17;;
66143;SDS011;52947;50.842;6.084;2024-03-08T13:47:06;26.35;;;16.70;;
66143;SDS011;52947;50.842;6.084;2024-03-08T13:49:34;25.30;;;15.65;;
66143;SDS011;52947;50.842;6.084;2024-03-08T13:52:03;23.92;;;16.40;;
66143;SDS011;52947;50.842;6.084;2024-03-08T13:54:31;36.67;;;19.63;;
66143;SDS011;52947;50.842;6.084;2024-03-08T13:56:59;27.23;;;17.83;;
66143;SDS011;52947;50.842;6.084;2024-03-08T13:59:30;26.80;;;17.30;;
66143;SDS011;52947;50.842;6.084;2024-03-08T14:02:01;27.20;;;17.02;;
66143;SDS011;52947;50.842;6.084;2024-03-08T14:04:29;23.83;;;16.23;;
66143;SDS011;52947;50.842;6.084;2024-03-08T14:06:58;27.02;;;17.08;;
66143;SDS011;52947;50.842;6.084;2024-03-08T14:09:30;38.42;;;18.05;;
66143;SDS011;52947;50.842;6.084;2024-03-08T14:11:57;24.65;;;15.98;;
66143;SDS011;52947;50.842;6.084;2024-03-08T14:14:26;25.42;;;16.67;;
66143;SDS011;52947;50.842;6.084;2024-03-08T14:16:54;27.35;;;15.07;;
66143;SDS011;52947;50.842;6.084;2024-03-08T14:19:26;28.77;;;15.98;;
66143;SDS011;52947;50.842;6.084;2024-03-08T14:21:54;23.10;;;14.13;;
66143;SDS011;52947;50.842;6.084;2024-03-08T14:24:22;28.00;;;16.60;;
66143;SDS011;52947;50.842;6.084;2024-03-08T14:26:50;23.10;;;14.18;;
66143;SDS011;52947;50.842;6.084;2024-03-08T14:29:18;26.73;;;16.42;;
66143;SDS011;52947;50.842;6.084;2024-03-08T14:31:46;29.55;;;17.30;;
66143;SDS011;52947;50.842;6.084;2024-03-08T14:34:14;26.67;;;15.48;;
66143;SDS011;52947;50.842;6.084;2024-03-08T14:36:44;24.33;;;14.27;;
66143;SDS011;52947;50.842;6.084;2024-03-08T14:39:12;28.75;;;15.50;;
66143;SDS011;52947;50.842;6.084;2024-03-08T14:41:41;31.52;;;16.08;;